sensor_id;sensor_type;location;lat;lon;timestamp;temperature;humidity
62476;DHT22;50739;45.670;11.936;2022-10-13T00:04:16;15.33;82.05
62476;DHT22;50739;45.670;11.936;2022-10-13T00:09:18;15.35;81.87
62476;DHT22;50739;45.670;11.936;2022-10-13T00:14:21;15.33;81.93
62476;DHT22;50739;45.670;11.936;2022-10-13T00:19:23;15.28;82.10
62476;DHT22;50739;45.670;11.936;2022-10-13T00:24:25;15.25;82.12
62476;DHT22;50739;45.670;11.936;2022-10-13T00:29:28;15.21;81.94
62476;DHT22;50739;45.670;11.936;2022-10-13T00:34:30;15.18;82.52
62476;DHT22;50739;45.670;11.936;2022-10-13T00:39:32;15.13;82.07
62476;DHT22;50739;45.670;11.936;2022-10-13T00:45:03;15.08;82.46
62476;DHT22;50739;45.670;11.936;2022-10-13T00:50:08;15.09;82.29
62476;DHT22;50739;45.670;11.936;2022-10-13T00:55:12;15.06;82.12
62476;DHT22;50739;45.670;11.936;2022-10-13T01:00:19;15.01;82.13
62476;DHT22;50739;45.670;11.936;2022-10-13T01:05:21;15.09;81.99
62476;DHT22;50739;45.670;11.936;2022-10-13T01:10:32;15.05;82.18
62476;DHT22;50739;45.670;11.936;2022-10-13T01:15:41;14.95;82.04
62476;DHT22;50739;45.670;11.936;2022-10-13T01:21:03;14.92;82.11
62476;DHT22;50739;45.670;11.936;2022-10-13T01:26:22;14.84;82.53
62476;DHT22;50739;45.670;11.936;2022-10-13T01:31:37;14.84;82.43
62476;DHT22;50739;45.670;11.936;2022-10-13T01:36:47;14.89;82.16
62476;DHT22;50739;45.670;11.936;2022-10-13T01:41:57;14.85;82.18
62476;DHT22;50739;45.670;11.936;2022-10-13T01:47:04;14.88;82.16
62476;DHT22;50739;45.670;11.936;2022-10-13T01:52:10;14.95;81.78
62476;DHT22;50739;45.670;11.936;2022-10-13T01:57:29;14.91;81.39
62476;DHT22;50739;45.670;11.936;2022-10-13T02:02:36;14.91;81.36
62476;DHT22;50739;45.670;11.936;2022-10-13T02:07:44;14.88;81.11
62476;DHT22;50739;45.670;11.936;2022-10-13T02:12:50;14.91;81.71
62476;DHT22;50739;45.670;11.936;2022-10-13T02:17:55;14.83;81.73
62476;DHT22;50739;45.670;11.936;2022-10-13T02:23:01;14.84;81.59
62476;DHT22;50739;45.670;11.936;2022-10-13T02:28:05;14.78;82.20
62476;DHT22;50739;45.670;11.936;2022-10-13T02:33:09;14.73;81.75
62476;DHT22;50739;45.670;11.936;2022-10-13T02:38:11;14.65;82.27
62476;DHT22;50739;45.670;11.936;2022-10-13T02:43:13;14.67;82.00
62476;DHT22;50739;45.670;11.936;2022-10-13T02:48:16;14.61;82.04
62476;DHT22;50739;45.670;11.936;2022-10-13T02:53:18;14.64;81.87
62476;DHT22;50739;45.670;11.936;2022-10-13T02:58:19;14.67;82.15
62476;DHT22;50739;45.670;11.936;2022-10-13T03:03:23;14.65;81.73
62476;DHT22;50739;45.670;11.936;2022-10-13T03:08:24;14.60;81.99
62476;DHT22;50739;45.670;11.936;2022-10-13T03:13:26;14.53;82.14
62476;DHT22;50739;45.670;11.936;2022-10-13T03:18:30;14.50;82.58
62476;DHT22;50739;45.670;11.936;2022-10-13T03:23:32;14.53;82.09
62476;DHT22;50739;45.670;11.936;2022-10-13T03:28:34;14.47;81.96
62476;DHT22;50739;45.670;11.936;2022-10-13T03:33:38;14.37;82.51
62476;DHT22;50739;45.670;11.936;2022-10-13T03:38:40;14.37;82.42
62476;DHT22;50739;45.670;11.936;2022-10-13T03:43:43;14.34;82.47
62476;DHT22;50739;45.670;11.936;2022-10-13T03:48:47;14.33;82.60
62476;DHT22;50739;45.670;11.936;2022-10-13T03:53:49;14.29;82.65
62476;DHT22;50739;45.670;11.936;2022-10-13T03:58:52;14.27;82.62
62476;DHT22;50739;45.670;11.936;2022-10-13T04:03:57;14.18;82.79
62476;DHT22;50739;45.670;11.936;2022-10-13T04:08:59;14.13;82.85
62476;DHT22;50739;45.670;11.936;2022-10-13T04:14:01;14.08;82.48
62476;DHT22;50739;45.670;11.936;2022-10-13T04:19:06;13.97;83.13
62476;DHT22;50739;45.670;11.936;2022-10-13T04:24:11;13.97;83.22
62476;DHT22;50739;45.670;11.936;2022-10-13T04:29:13;13.98;83.06
62476;DHT22;50739;45.670;11.936;2022-10-13T04:34:18;13.91;83.12
62476;DHT22;50739;45.670;11.936;2022-10-13T04:39:20;13.83;83.45
62476;DHT22;50739;45.670;11.936;2022-10-13T04:44:22;13.83;83.54
62476;DHT22;50739;45.670;11.936;2022-10-13T04:49:26;13.86;83.21
62476;DHT22;50739;45.670;11.936;2022-10-13T04:54:28;13.70;84.15
62476;DHT22;50739;45.670;11.936;2022-10-13T04:59:30;13.70;84.15
62476;DHT22;50739;45.670;11.936;2022-10-13T05:04:33;13.74;83.80
62476;DHT22;50739;45.670;11.936;2022-10-13T05:09:35;13.70;83.76
62476;DHT22;50739;45.670;11.936;2022-10-13T05:14:37;13.63;83.89
62476;DHT22;50739;45.670;11.936;2022-10-13T05:19:40;13.63;84.40
62476;DHT22;50739;45.670;11.936;2022-10-13T05:24:42;13.57;84.44
62476;DHT22;50739;45.670;11.936;2022-10-13T05:29:44;13.51;84.72
62476;DHT22;50739;45.670;11.936;2022-10-13T05:34:48;13.44;84.73
62476;DHT22;50739;45.670;11.936;2022-10-13T05:39:50;13.50;84.71
62476;DHT22;50739;45.670;11.936;2022-10-13T05:44:51;13.54;84.32
62476;DHT22;50739;45.670;11.936;2022-10-13T05:49:55;13.50;84.40
62476;DHT22;50739;45.670;11.936;2022-10-13T05:54:59;13.42;84.51
62476;DHT22;50739;45.670;11.936;2022-10-13T06:00:05;13.46;84.70
62476;DHT22;50739;45.670;11.936;2022-10-13T06:05:12;13.53;84.78
62476;DHT22;50739;45.670;11.936;2022-10-13T06:10:15;13.68;84.56
62476;DHT22;50739;45.670;11.936;2022-10-13T06:15:17;13.68;84.18
62476;DHT22;50739;45.670;11.936;2022-10-13T06:20:20;13.78;84.19
62476;DHT22;50739;45.670;11.936;2022-10-13T06:25:22;13.85;84.06
62476;DHT22;50739;45.670;11.936;2022-10-13T06:30:24;13.98;83.60
62476;DHT22;50739;45.670;11.936;2022-10-13T06:35:27;14.08;83.78
62476;DHT22;50739;45.670;11.936;2022-10-13T06:40:29;14.16;83.33
62476;DHT22;50739;45.670;11.936;2022-10-13T06:45:30;14.22;83.41
62476;DHT22;50739;45.670;11.936;2022-10-13T06:50:33;14.37;82.89
62476;DHT22;50739;45.670;11.936;2022-10-13T06:55:35;14.48;82.93
62476;DHT22;50739;45.670;11.936;2022-10-13T07:00:39;14.60;82.40
62476;DHT22;50739;45.670;11.936;2022-10-13T07:05:43;14.74;82.92
62476;DHT22;50739;45.670;11.936;2022-10-13T07:10:45;14.85;82.57
62476;DHT22;50739;45.670;11.936;2022-10-13T07:15:46;14.99;82.70
62476;DHT22;50739;45.670;11.936;2022-10-13T07:20:50;15.16;81.96
62476;DHT22;50739;45.670;11.936;2022-10-13T07:25:52;15.32;81.70
62476;DHT22;50739;45.670;11.936;2022-10-13T07:30:56;15.50;81.35
62476;DHT22;50739;45.670;11.936;2022-10-13T07:35:59;15.67;81.61
62476;DHT22;50739;45.670;11.936;2022-10-13T07:41:01;15.94;79.25
62476;DHT22;50739;45.670;11.936;2022-10-13T07:46:04;16.16;78.51
62476;DHT22;50739;45.670;11.936;2022-10-13T07:51:09;16.43;77.01
62476;DHT22;50739;45.670;11.936;2022-10-13T07:56:13;16.55;77.42
62476;DHT22;50739;45.670;11.936;2022-10-13T08:01:16;16.76;76.97
62476;DHT22;50739;45.670;11.936;2022-10-13T08:06:19;16.92;75.17
62476;DHT22;50739;45.670;11.936;2022-10-13T08:11:21;17.11;74.85
62476;DHT22;50739;45.670;11.936;2022-10-13T08:16:22;17.28;75.89
62476;DHT22;50739;45.670;11.936;2022-10-13T08:21:27;17.45;73.90
62476;DHT22;50739;45.670;11.936;2022-10-13T08:26:29;17.66;74.49
62476;DHT22;50739;45.670;11.936;2022-10-13T08:31:31;17.96;71.98
62476;DHT22;50739;45.670;11.936;2022-10-13T08:36:35;18.28;69.44
62476;DHT22;50739;45.670;11.936;2022-10-13T08:41:39;18.34;68.87
62476;DHT22;50739;45.670;11.936;2022-10-13T08:46:48;18.46;68.88
62476;DHT22;50739;45.670;11.936;2022-10-13T08:51:53;18.65;69.55
62476;DHT22;50739;45.670;11.936;2022-10-13T08:56:56;18.77;67.97
62476;DHT22;50739;45.670;11.936;2022-10-13T09:01:58;18.90;67.00
62476;DHT22;50739;45.670;11.936;2022-10-13T09:07:05;19.07;67.32
62476;DHT22;50739;45.670;11.936;2022-10-13T09:12:11;19.28;66.13
62476;DHT22;50739;45.670;11.936;2022-10-13T09:17:17;19.44;66.58
62476;DHT22;50739;45.670;11.936;2022-10-13T09:22:23;19.68;64.01
62476;DHT22;50739;45.670;11.936;2022-10-13T09:27:25;19.68;65.11
62476;DHT22;50739;45.670;11.936;2022-10-13T09:32:34;20.00;63.03
62476;DHT22;50739;45.670;11.936;2022-10-13T09:37:39;19.97;63.81
62476;DHT22;50739;45.670;11.936;2022-10-13T09:42:41;19.94;62.84
62476;DHT22;50739;45.670;11.936;2022-10-13T09:47:53;20.09;62.81
62476;DHT22;50739;45.670;11.936;2022-10-13T09:53:17;20.16;62.59
62476;DHT22;50739;45.670;11.936;2022-10-13T09:58:25;20.40;64.06
62476;DHT22;50739;45.670;11.936;2022-10-13T10:03:31;20.48;62.44
62476;DHT22;50739;45.670;11.936;2022-10-13T10:08:39;20.64;62.72
62476;DHT22;50739;45.670;11.936;2022-10-13T10:13:46;21.04;61.57
62476;DHT22;50739;45.670;11.936;2022-10-13T10:18:50;21.27;59.88
62476;DHT22;50739;45.670;11.936;2022-10-13T10:23:58;21.28;58.79
62476;DHT22;50739;45.670;11.936;2022-10-13T10:29:18;21.14;58.55
62476;DHT22;50739;45.670;11.936;2022-10-13T10:34:30;21.37;59.02
62476;DHT22;50739;45.670;11.936;2022-10-13T10:39:41;21.50;58.98
62476;DHT22;50739;45.670;11.936;2022-10-13T10:44:48;21.69;57.83
62476;DHT22;50739;45.670;11.936;2022-10-13T10:49:56;21.78;57.33
62476;DHT22;50739;45.670;11.936;2022-10-13T10:55:09;21.88;58.59
62476;DHT22;50739;45.670;11.936;2022-10-13T11:00:18;21.86;58.03
62476;DHT22;50739;45.670;11.936;2022-10-13T11:05:21;21.99;57.69
62476;DHT22;50739;45.670;11.936;2022-10-13T11:10:25;21.93;56.30
62476;DHT22;50739;45.670;11.936;2022-10-13T11:15:29;22.00;55.88
62476;DHT22;50739;45.670;11.936;2022-10-13T11:20:57;22.21;56.27
62476;DHT22;50739;45.670;11.936;2022-10-13T11:26:31;22.43;56.37
62476;DHT22;50739;45.670;11.936;2022-10-13T11:31:50;22.60;55.52
62476;DHT22;50739;45.670;11.936;2022-10-13T11:36:54;22.27;55.05
62476;DHT22;50739;45.670;11.936;2022-10-13T11:42:07;22.32;54.77
62476;DHT22;50739;45.670;11.936;2022-10-13T11:47:24;22.57;55.73
62476;DHT22;50739;45.670;11.936;2022-10-13T11:52:47;22.50;54.20
62476;DHT22;50739;45.670;11.936;2022-10-13T11:58:07;22.85;54.92
62476;DHT22;50739;45.670;11.936;2022-10-13T12:03:19;23.09;54.23
62476;DHT22;50739;45.670;11.936;2022-10-13T12:08:21;23.27;53.40
62476;DHT22;50739;45.670;11.936;2022-10-13T12:13:26;23.27;52.61
62476;DHT22;50739;45.670;11.936;2022-10-13T12:18:30;23.67;51.64
62476;DHT22;50739;45.670;11.936;2022-10-13T12:23:33;24.01;52.04
62476;DHT22;50739;45.670;11.936;2022-10-13T12:28:47;24.32;50.09
62476;DHT22;50739;45.670;11.936;2022-10-13T12:33:54;24.59;50.39
62476;DHT22;50739;45.670;11.936;2022-10-13T12:39:00;25.07;49.29
62476;DHT22;50739;45.670;11.936;2022-10-13T12:44:07;25.83;45.94
62476;DHT22;50739;45.670;11.936;2022-10-13T12:49:15;25.18;48.20
62476;DHT22;50739;45.670;11.936;2022-10-13T12:54:20;26.21;46.75
62476;DHT22;50739;45.670;11.936;2022-10-13T12:59:25;25.70;46.12
62476;DHT22;50739;45.670;11.936;2022-10-13T13:04:39;25.73;46.83
62476;DHT22;50739;45.670;11.936;2022-10-13T13:09:41;26.35;46.15
62476;DHT22;50739;45.670;11.936;2022-10-13T13:14:45;26.21;46.00
62476;DHT22;50739;45.670;11.936;2022-10-13T13:19:50;26.97;45.35
62476;DHT22;50739;45.670;11.936;2022-10-13T13:24:52;27.24;45.61
62476;DHT22;50739;45.670;11.936;2022-10-13T13:29:55;26.92;44.90
62476;DHT22;50739;45.670;11.936;2022-10-13T13:34:57;26.44;45.53
62476;DHT22;50739;45.670;11.936;2022-10-13T13:39:59;26.45;46.59
62476;DHT22;50739;45.670;11.936;2022-10-13T13:45:03;25.73;46.45
62476;DHT22;50739;45.670;11.936;2022-10-13T13:50:12;25.63;46.64
62476;DHT22;50739;45.670;11.936;2022-10-13T13:55:15;25.53;47.33
62476;DHT22;50739;45.670;11.936;2022-10-13T14:00:18;24.97;48.18
62476;DHT22;50739;45.670;11.936;2022-10-13T14:05:20;25.05;49.28
62476;DHT22;50739;45.670;11.936;2022-10-13T14:10:22;24.90;48.78
62476;DHT22;50739;45.670;11.936;2022-10-13T14:15:26;24.95;49.35
62476;DHT22;50739;45.670;11.936;2022-10-13T14:20:28;24.83;48.22
62476;DHT22;50739;45.670;11.936;2022-10-13T14:25:30;25.05;48.04
62476;DHT22;50739;45.670;11.936;2022-10-13T14:30:34;24.64;48.52
62476;DHT22;50739;45.670;11.936;2022-10-13T14:35:35;24.23;49.03
62476;DHT22;50739;45.670;11.936;2022-10-13T14:40:39;24.16;49.69
62476;DHT22;50739;45.670;11.936;2022-10-13T14:45:43;23.91;50.84
62476;DHT22;50739;45.670;11.936;2022-10-13T14:50:45;23.63;51.02
62476;DHT22;50739;45.670;11.936;2022-10-13T14:55:46;23.59;51.55
62476;DHT22;50739;45.670;11.936;2022-10-13T15:00:50;23.57;52.85
62476;DHT22;50739;45.670;11.936;2022-10-13T15:05:53;23.38;53.52
62476;DHT22;50739;45.670;11.936;2022-10-13T15:10:58;23.27;53.36
62476;DHT22;50739;45.670;11.936;2022-10-13T15:16:01;23.22;54.04
62476;DHT22;50739;45.670;11.936;2022-10-13T15:21:03;23.15;54.51
62476;DHT22;50739;45.670;11.936;2022-10-13T15:26:06;22.88;54.63
62476;DHT22;50739;45.670;11.936;2022-10-13T15:31:10;22.76;55.08
62476;DHT22;50739;45.670;11.936;2022-10-13T15:36:12;22.56;56.24
62476;DHT22;50739;45.670;11.936;2022-10-13T15:41:14;22.33;56.49
62476;DHT22;50739;45.670;11.936;2022-10-13T15:46:18;22.35;56.90
62476;DHT22;50739;45.670;11.936;2022-10-13T15:51:23;22.29;57.82
62476;DHT22;50739;45.670;11.936;2022-10-13T15:56:26;22.14;57.95
62476;DHT22;50739;45.670;11.936;2022-10-13T16:01:29;21.92;58.02
62476;DHT22;50739;45.670;11.936;2022-10-13T16:06:31;21.86;58.40
62476;DHT22;50739;45.670;11.936;2022-10-13T16:11:35;21.75;59.18
62476;DHT22;50739;45.670;11.936;2022-10-13T16:16:38;21.54;61.98
62476;DHT22;50739;45.670;11.936;2022-10-13T16:21:40;21.50;62.63
62476;DHT22;50739;45.670;11.936;2022-10-13T16:26:42;21.27;64.10
62476;DHT22;50739;45.670;11.936;2022-10-13T16:31:45;21.07;64.99
62476;DHT22;50739;45.670;11.936;2022-10-13T16:36:48;20.90;65.20
62476;DHT22;50739;45.670;11.936;2022-10-13T16:41:50;20.76;66.68
62476;DHT22;50739;45.670;11.936;2022-10-13T16:46:53;20.64;66.93
62476;DHT22;50739;45.670;11.936;2022-10-13T16:51:56;20.47;67.94
62476;DHT22;50739;45.670;11.936;2022-10-13T16:56:58;20.51;66.58
62476;DHT22;50739;45.670;11.936;2022-10-13T17:02:01;20.47;67.30
62476;DHT22;50739;45.670;11.936;2022-10-13T17:07:03;20.35;67.78
62476;DHT22;50739;45.670;11.936;2022-10-13T17:12:05;20.24;68.14
62476;DHT22;50739;45.670;11.936;2022-10-13T17:17:09;20.09;68.56
62476;DHT22;50739;45.670;11.936;2022-10-13T17:22:11;20.10;69.60
62476;DHT22;50739;45.670;11.936;2022-10-13T17:27:13;20.04;70.56
62476;DHT22;50739;45.670;11.936;2022-10-13T17:32:17;19.93;71.15
62476;DHT22;50739;45.670;11.936;2022-10-13T17:37:19;19.93;71.62
62476;DHT22;50739;45.670;11.936;2022-10-13T17:42:21;19.94;71.40
62476;DHT22;50739;45.670;11.936;2022-10-13T17:47:24;19.83;72.10
62476;DHT22;50739;45.670;11.936;2022-10-13T17:52:26;19.72;72.56
62476;DHT22;50739;45.670;11.936;2022-10-13T17:57:28;19.66;72.34
62476;DHT22;50739;45.670;11.936;2022-10-13T18:02:31;19.54;73.13
62476;DHT22;50739;45.670;11.936;2022-10-13T18:07:33;19.47;72.99
62476;DHT22;50739;45.670;11.936;2022-10-13T18:12:35;19.36;74.63
62476;DHT22;50739;45.670;11.936;2022-10-13T18:17:38;19.27;73.77
62476;DHT22;50739;45.670;11.936;2022-10-13T18:22:40;19.24;73.75
62476;DHT22;50739;45.670;11.936;2022-10-13T18:27:42;19.10;74.47
62476;DHT22;50739;45.670;11.936;2022-10-13T18:32:45;19.00;74.89
62476;DHT22;50739;45.670;11.936;2022-10-13T18:37:49;18.87;75.27
62476;DHT22;50739;45.670;11.936;2022-10-13T18:42:51;18.82;74.91
62476;DHT22;50739;45.670;11.936;2022-10-13T18:47:57;18.75;75.37
62476;DHT22;50739;45.670;11.936;2022-10-13T18:52:59;18.59;76.70
62476;DHT22;50739;45.670;11.936;2022-10-13T18:58:01;18.55;76.05
62476;DHT22;50739;45.670;11.936;2022-10-13T19:03:04;18.46;76.84
62476;DHT22;50739;45.670;11.936;2022-10-13T19:08:06;18.27;77.23
62476;DHT22;50739;45.670;11.936;2022-10-13T19:13:08;18.24;77.18
62476;DHT22;50739;45.670;11.936;2022-10-13T19:18:12;18.15;78.52
62476;DHT22;50739;45.670;11.936;2022-10-13T19:23:14;18.10;77.91
62476;DHT22;50739;45.670;11.936;2022-10-13T19:28:17;18.04;77.85
62476;DHT22;50739;45.670;11.936;2022-10-13T19:33:21;17.93;78.42
62476;DHT22;50739;45.670;11.936;2022-10-13T19:38:23;17.77;78.56
62476;DHT22;50739;45.670;11.936;2022-10-13T19:43:26;17.77;78.52
62476;DHT22;50739;45.670;11.936;2022-10-13T19:48:29;17.74;78.26
62476;DHT22;50739;45.670;11.936;2022-10-13T19:53:38;17.57;79.06
62476;DHT22;50739;45.670;11.936;2022-10-13T19:58:40;17.50;79.22
62476;DHT22;50739;45.670;11.936;2022-10-13T20:03:43;17.43;79.48
62476;DHT22;50739;45.670;11.936;2022-10-13T20:08:46;17.40;79.98
62476;DHT22;50739;45.670;11.936;2022-10-13T20:13:48;17.26;80.26
62476;DHT22;50739;45.670;11.936;2022-10-13T20:18:52;17.24;80.11
62476;DHT22;50739;45.670;11.936;2022-10-13T20:23:55;17.19;79.80
62476;DHT22;50739;45.670;11.936;2022-10-13T20:28:57;17.18;80.02
62476;DHT22;50739;45.670;11.936;2022-10-13T20:34:01;17.17;80.45
62476;DHT22;50739;45.670;11.936;2022-10-13T20:39:03;17.08;80.26
62476;DHT22;50739;45.670;11.936;2022-10-13T20:44:05;17.04;80.10
62476;DHT22;50739;45.670;11.936;2022-10-13T20:49:08;17.04;80.41
62476;DHT22;50739;45.670;11.936;2022-10-13T20:54:11;17.00;80.56
62476;DHT22;50739;45.670;11.936;2022-10-13T20:59:13;16.95;80.67
62476;DHT22;50739;45.670;11.936;2022-10-13T21:04:16;16.88;80.85
62476;DHT22;50739;45.670;11.936;2022-10-13T21:09:18;16.91;81.19
62476;DHT22;50739;45.670;11.936;2022-10-13T21:14:20;16.88;80.98
62476;DHT22;50739;45.670;11.936;2022-10-13T21:19:23;16.79;80.97
62476;DHT22;50739;45.670;11.936;2022-10-13T21:24:28;16.69;81.17
62476;DHT22;50739;45.670;11.936;2022-10-13T21:29:30;16.71;80.82
62476;DHT22;50739;45.670;11.936;2022-10-13T21:34:33;16.67;81.23
62476;DHT22;50739;45.670;11.936;2022-10-13T21:39:35;16.60;81.11
62476;DHT22;50739;45.670;11.936;2022-10-13T21:44:38;16.67;80.71
62476;DHT22;50739;45.670;11.936;2022-10-13T21:49:41;16.59;81.37
62476;DHT22;50739;45.670;11.936;2022-10-13T21:54:43;16.60;81.04
62476;DHT22;50739;45.670;11.936;2022-10-13T21:59:45;16.59;80.71
62476;DHT22;50739;45.670;11.936;2022-10-13T22:04:49;16.50;81.55
62476;DHT22;50739;45.670;11.936;2022-10-13T22:09:51;16.50;80.99
62476;DHT22;50739;45.670;11.936;2022-10-13T22:14:52;16.45;81.19
62476;DHT22;50739;45.670;11.936;2022-10-13T22:19:56;16.45;81.01
62476;DHT22;50739;45.670;11.936;2022-10-13T22:24:57;16.46;80.91
62476;DHT22;50739;45.670;11.936;2022-10-13T22:29:59;16.38;80.79
62476;DHT22;50739;45.670;11.936;2022-10-13T22:35:03;16.36;80.89
62476;DHT22;50739;45.670;11.936;2022-10-13T22:40:06;16.35;80.69
62476;DHT22;50739;45.670;11.936;2022-10-13T22:45:08;16.26;80.80
62476;DHT22;50739;45.670;11.936;2022-10-13T22:50:12;16.26;80.39
62476;DHT22;50739;45.670;11.936;2022-10-13T22:55:14;16.12;81.26
62476;DHT22;50739;45.670;11.936;2022-10-13T23:00:16;16.14;81.00
62476;DHT22;50739;45.670;11.936;2022-10-13T23:05:19;16.14;80.86
62476;DHT22;50739;45.670;11.936;2022-10-13T23:10:21;16.09;81.02
62476;DHT22;50739;45.670;11.936;2022-10-13T23:15:23;15.94;81.80
62476;DHT22;50739;45.670;11.936;2022-10-13T23:20:26;15.94;81.51
62476;DHT22;50739;45.670;11.936;2022-10-13T23:25:28;15.95;81.13
62476;DHT22;50739;45.670;11.936;2022-10-13T23:30:30;15.84;81.38
62476;DHT22;50739;45.670;11.936;2022-10-13T23:35:33;15.93;80.58
62476;DHT22;50739;45.670;11.936;2022-10-13T23:40:35;15.87;79.98
62476;DHT22;50739;45.670;11.936;2022-10-13T23:45:37;15.86;79.86
62476;DHT22;50739;45.670;11.936;2022-10-13T23:50:40;15.81;80.16
62476;DHT22;50739;45.670;11.936;2022-10-13T23:55:42;15.78;79.47
